aviador You're here:

KRIW Decoded Metar

RIVERTON in WY, USA
Report Time2018-01-18 20:53:00
UTC Time2018-01-18 21:32:37
Flight Rules vfr VFR
Wind030° at 04 kt
W.Decomp.*RWY 01: 4.0 kt HW 0.6 kt RCW
RWY 10: 0.6 kt HW 4 kt LCW
W.Rank030° ranks 17
Current wind is below 030° avg. (7.9)
Visibility9999 m
Phenomena:N/A
Clouds:N/A
Expected CloudBase > 2,400 ft AGL from Temp-Dew spread
CeilingNone
Temp-2°C (ISA -6)
Dew Point-8°C (64% RH)
AAT-6.3°C
QNH1015 hPa
Density Alt4,843 ft
Elevation5,568 ft
Report Wrong Elevation
Raw Report
METAR KRIW 182053Z AUTO 03004KT 10SM CLR M02/M08 A2998 RMK AO2 SLP198
T10221078 56028=

Extra information for KRIW:More info

Metar Taf Metar & Taf Last 4 Metars F.Rules Stats Wind Profile Meteogram Temp Stats Airport Information Weather charts Add Link Nearby VenuesMetar ALERT Operation Metar Decoded Social comments

AIRNAV info for KRIW